sensor_id;sensor_type;location;lat;lon;timestamp;temperature;humidity
16801;DHT22;8518;53.236;10.384;2023-03-31T00:05:45;10.30;99.90
16801;DHT22;8518;53.236;10.384;2023-03-31T00:08:13;10.30;99.90
16801;DHT22;8518;53.236;10.384;2023-03-31T00:10:44;10.30;99.90
16801;DHT22;8518;53.236;10.384;2023-03-31T00:16:36;10.30;99.90
16801;DHT22;8518;53.236;10.384;2023-03-31T00:19:06;10.30;99.90
16801;DHT22;8518;53.236;10.384;2023-03-31T00:21:35;10.30;99.90
16801;DHT22;8518;53.236;10.384;2023-03-31T00:27:28;10.30;99.90
16801;DHT22;8518;53.236;10.384;2023-03-31T00:29:54;11.50;99.90
16801;DHT22;8518;53.236;10.384;2023-03-31T00:35:42;10.00;99.90
16801;DHT22;8518;53.236;10.384;2023-03-31T00:38:08;10.20;99.90
16801;DHT22;8518;53.236;10.384;2023-03-31T00:40:34;10.10;99.90
16801;DHT22;8518;53.236;10.384;2023-03-31T00:46:27;10.00;99.90
16801;DHT22;8518;53.236;10.384;2023-03-31T00:48:56;9.90;99.90
16801;DHT22;8518;53.236;10.384;2023-03-31T00:51:25;9.80;99.90
16801;DHT22;8518;53.236;10.384;2023-03-31T00:57:16;9.80;99.90
16801;DHT22;8518;53.236;10.384;2023-03-31T01:03:07;9.70;99.90
16801;DHT22;8518;53.236;10.384;2023-03-31T01:05:51;9.70;99.90
16801;DHT22;8518;53.236;10.384;2023-03-31T01:08:19;9.60;99.90
16801;DHT22;8518;53.236;10.384;2023-03-31T01:10:52;9.60;99.90
16801;DHT22;8518;53.236;10.384;2023-03-31T01:16:40;9.50;99.90
16801;DHT22;8518;53.236;10.384;2023-03-31T01:25:32;9.50;99.90
16801;DHT22;8518;53.236;10.384;2023-03-31T01:28:18;9.50;99.90
16801;DHT22;8518;53.236;10.384;2023-03-31T01:37:21;9.50;99.90
16801;DHT22;8518;53.236;10.384;2023-03-31T01:46:34;9.50;99.90
16801;DHT22;8518;53.236;10.384;2023-03-31T01:49:14;9.50;99.90
16801;DHT22;8518;53.236;10.384;2023-03-31T01:52:02;9.90;99.90
16801;DHT22;8518;53.236;10.384;2023-03-31T01:54:48;9.40;99.90
16801;DHT22;8518;53.236;10.384;2023-03-31T01:57:44;9.40;99.90
16801;DHT22;8518;53.236;10.384;2023-03-31T02:00:15;9.50;99.90
16801;DHT22;8518;53.236;10.384;2023-03-31T02:06:13;9.40;99.90
16801;DHT22;8518;53.236;10.384;2023-03-31T02:09:29;9.40;99.90
16801;DHT22;8518;53.236;10.384;2023-03-31T02:11:38;9.40;99.90
16801;DHT22;8518;53.236;10.384;2023-03-31T02:17:27;9.40;99.90
16801;DHT22;8518;53.236;10.384;2023-03-31T02:20:06;9.20;99.90
16801;DHT22;8518;53.236;10.384;2023-03-31T02:26:09;9.30;99.90
16801;DHT22;8518;53.236;10.384;2023-03-31T02:28:36;9.40;99.90
16801;DHT22;8518;53.236;10.384;2023-03-31T02:31:40;9.30;99.90
16801;DHT22;8518;53.236;10.384;2023-03-31T02:37:31;9.30;99.90
16801;DHT22;8518;53.236;10.384;2023-03-31T02:39:59;9.30;99.90
16801;DHT22;8518;53.236;10.384;2023-03-31T02:42:26;9.30;99.90
16801;DHT22;8518;53.236;10.384;2023-03-31T02:44:51;9.20;99.90
16801;DHT22;8518;53.236;10.384;2023-03-31T02:47:21;10.70;99.90
16801;DHT22;8518;53.236;10.384;2023-03-31T02:49:53;9.30;99.90
16801;DHT22;8518;53.236;10.384;2023-03-31T02:56:02;9.20;99.90
16801;DHT22;8518;53.236;10.384;2023-03-31T02:58:40;9.20;99.90
16801;DHT22;8518;53.236;10.384;2023-03-31T03:01:35;9.10;99.90
16801;DHT22;8518;53.236;10.384;2023-03-31T03:16:32;9.10;99.90
16801;DHT22;8518;53.236;10.384;2023-03-31T03:19:02;9.70;99.90
16801;DHT22;8518;53.236;10.384;2023-03-31T03:21:29;9.00;99.90
16801;DHT22;8518;53.236;10.384;2023-03-31T03:27:20;9.50;99.90
16801;DHT22;8518;53.236;10.384;2023-03-31T03:29:49;9.00;99.90
16801;DHT22;8518;53.236;10.384;2023-03-31T03:32:14;9.00;99.90
16801;DHT22;8518;53.236;10.384;2023-03-31T03:34:45;9.00;99.90
16801;DHT22;8518;53.236;10.384;2023-03-31T03:37:11;9.00;99.90
16801;DHT22;8518;53.236;10.384;2023-03-31T03:39:37;9.00;99.90
16801;DHT22;8518;53.236;10.384;2023-03-31T03:42:03;10.40;99.90
16801;DHT22;8518;53.236;10.384;2023-03-31T03:44:28;9.20;99.90
16801;DHT22;8518;53.236;10.384;2023-03-31T03:47:00;9.10;99.90
16801;DHT22;8518;53.236;10.384;2023-03-31T03:49:26;9.30;99.90
16801;DHT22;8518;53.236;10.384;2023-03-31T03:51:51;9.40;99.90
16801;DHT22;8518;53.236;10.384;2023-03-31T03:54:20;9.50;99.90
16801;DHT22;8518;53.236;10.384;2023-03-31T03:56:51;9.50;99.90
16801;DHT22;8518;53.236;10.384;2023-03-31T03:59:17;9.60;99.90
16801;DHT22;8518;53.236;10.384;2023-03-31T04:01:43;9.60;99.90
16801;DHT22;8518;53.236;10.384;2023-03-31T04:07:30;9.70;99.90
16801;DHT22;8518;53.236;10.384;2023-03-31T04:09:56;9.80;99.90
16801;DHT22;8518;53.236;10.384;2023-03-31T04:15:44;9.90;99.90
16801;DHT22;8518;53.236;10.384;2023-03-31T04:18:13;9.90;99.90
16801;DHT22;8518;53.236;10.384;2023-03-31T04:20:52;10.00;99.90
16801;DHT22;8518;53.236;10.384;2023-03-31T04:26:51;10.00;99.90
16801;DHT22;8518;53.236;10.384;2023-03-31T04:32:42;10.10;99.90
16801;DHT22;8518;53.236;10.384;2023-03-31T04:35:08;10.20;99.90
16801;DHT22;8518;53.236;10.384;2023-03-31T04:37:34;10.10;99.90
16801;DHT22;8518;53.236;10.384;2023-03-31T04:40:00;11.00;99.90
16801;DHT22;8518;53.236;10.384;2023-03-31T04:42:35;10.20;99.90
16801;DHT22;8518;53.236;10.384;2023-03-31T04:45:01;10.50;99.90
16801;DHT22;8518;53.236;10.384;2023-03-31T04:47:27;10.10;99.90
16801;DHT22;8518;53.236;10.384;2023-03-31T04:49:58;10.20;99.90
16801;DHT22;8518;53.236;10.384;2023-03-31T04:55:47;10.30;99.90
16801;DHT22;8518;53.236;10.384;2023-03-31T04:58:13;10.50;99.90
16801;DHT22;8518;53.236;10.384;2023-03-31T05:00:39;10.30;99.90
16801;DHT22;8518;53.236;10.384;2023-03-31T05:06:27;10.30;99.90
16801;DHT22;8518;53.236;10.384;2023-03-31T05:12:15;10.30;99.90
16801;DHT22;8518;53.236;10.384;2023-03-31T05:14:40;10.20;99.90
16801;DHT22;8518;53.236;10.384;2023-03-31T05:17:09;10.20;99.90
16801;DHT22;8518;53.236;10.384;2023-03-31T05:19:34;10.20;99.90
16801;DHT22;8518;53.236;10.384;2023-03-31T05:22:06;10.20;99.90
16801;DHT22;8518;53.236;10.384;2023-03-31T05:24:39;10.20;99.90
16801;DHT22;8518;53.236;10.384;2023-03-31T05:27:10;10.20;99.90
16801;DHT22;8518;53.236;10.384;2023-03-31T05:29:35;10.10;99.90
16801;DHT22;8518;53.236;10.384;2023-03-31T05:32:03;10.50;99.90
16801;DHT22;8518;53.236;10.384;2023-03-31T05:34:35;10.20;99.90
16801;DHT22;8518;53.236;10.384;2023-03-31T05:37:02;10.10;99.90
16801;DHT22;8518;53.236;10.384;2023-03-31T05:39:30;11.00;99.90
16801;DHT22;8518;53.236;10.384;2023-03-31T05:41:58;10.20;99.90
16801;DHT22;8518;53.236;10.384;2023-03-31T05:44:24;10.10;99.90
16801;DHT22;8518;53.236;10.384;2023-03-31T05:46:53;10.10;99.90
16801;DHT22;8518;53.236;10.384;2023-03-31T05:49:19;10.30;99.90
16801;DHT22;8518;53.236;10.384;2023-03-31T05:51:48;10.30;99.90
16801;DHT22;8518;53.236;10.384;2023-03-31T05:57:36;10.50;99.90
16801;DHT22;8518;53.236;10.384;2023-03-31T06:00:03;10.50;99.90
16801;DHT22;8518;53.236;10.384;2023-03-31T06:05:55;10.60;99.90
16801;DHT22;8518;53.236;10.384;2023-03-31T06:11:47;10.70;99.90
16801;DHT22;8518;53.236;10.384;2023-03-31T06:17:36;10.80;99.90
16801;DHT22;8518;53.236;10.384;2023-03-31T06:20:01;11.00;99.90
16801;DHT22;8518;53.236;10.384;2023-03-31T06:25:52;11.00;99.90
16801;DHT22;8518;53.236;10.384;2023-03-31T06:28:21;11.00;99.90
16801;DHT22;8518;53.236;10.384;2023-03-31T06:30:47;11.00;99.90
16801;DHT22;8518;53.236;10.384;2023-03-31T06:36:40;11.10;99.90
16801;DHT22;8518;53.236;10.384;2023-03-31T06:39:06;11.10;99.90
16801;DHT22;8518;53.236;10.384;2023-03-31T06:41:31;11.20;99.90
16801;DHT22;8518;53.236;10.384;2023-03-31T06:43:57;11.20;99.90
16801;DHT22;8518;53.236;10.384;2023-03-31T06:46:23;11.20;99.90
16801;DHT22;8518;53.236;10.384;2023-03-31T06:48:51;11.20;99.90
16801;DHT22;8518;53.236;10.384;2023-03-31T06:51:20;11.20;99.90
16801;DHT22;8518;53.236;10.384;2023-03-31T06:57:10;11.40;99.90
16801;DHT22;8518;53.236;10.384;2023-03-31T06:59:36;11.40;99.90
16801;DHT22;8518;53.236;10.384;2023-03-31T07:02:01;11.40;99.90
16801;DHT22;8518;53.236;10.384;2023-03-31T07:04:30;11.50;99.90
16801;DHT22;8518;53.236;10.384;2023-03-31T07:06:57;11.60;99.90
16801;DHT22;8518;53.236;10.384;2023-03-31T07:09:26;11.60;99.90
16801;DHT22;8518;53.236;10.384;2023-03-31T07:11:51;11.70;99.90
16801;DHT22;8518;53.236;10.384;2023-03-31T07:14:21;11.80;99.90
16801;DHT22;8518;53.236;10.384;2023-03-31T07:16:52;11.60;99.90
16801;DHT22;8518;53.236;10.384;2023-03-31T07:19:21;11.50;99.90
16801;DHT22;8518;53.236;10.384;2023-03-31T07:21:47;12.40;99.90
16801;DHT22;8518;53.236;10.384;2023-03-31T07:27:35;11.40;99.90
16801;DHT22;8518;53.236;10.384;2023-03-31T07:30:09;11.40;99.90
16801;DHT22;8518;53.236;10.384;2023-03-31T07:35:57;11.30;99.90
16801;DHT22;8518;53.236;10.384;2023-03-31T07:41:45;11.20;99.90
16801;DHT22;8518;53.236;10.384;2023-03-31T07:44:11;12.00;99.90
16801;DHT22;8518;53.236;10.384;2023-03-31T07:46:41;11.20;99.90
16801;DHT22;8518;53.236;10.384;2023-03-31T07:49:07;12.30;99.90
16801;DHT22;8518;53.236;10.384;2023-03-31T07:51:34;11.10;99.90
16801;DHT22;8518;53.236;10.384;2023-03-31T07:57:23;11.00;99.90
16801;DHT22;8518;53.236;10.384;2023-03-31T07:59:48;11.00;99.90
16801;DHT22;8518;53.236;10.384;2023-03-31T08:02:15;11.00;99.90
16801;DHT22;8518;53.236;10.384;2023-03-31T08:04:50;11.00;99.90
16801;DHT22;8518;53.236;10.384;2023-03-31T08:07:16;11.00;99.90
16801;DHT22;8518;53.236;10.384;2023-03-31T08:09:44;11.10;99.90
16801;DHT22;8518;53.236;10.384;2023-03-31T08:12:10;11.00;99.90
16801;DHT22;8518;53.236;10.384;2023-03-31T08:14:35;11.10;99.90
16801;DHT22;8518;53.236;10.384;2023-03-31T08:17:04;11.10;99.90
16801;DHT22;8518;53.236;10.384;2023-03-31T08:19:29;11.10;99.90
16801;DHT22;8518;53.236;10.384;2023-03-31T08:21:55;11.10;99.90
16801;DHT22;8518;53.236;10.384;2023-03-31T08:24:21;11.90;99.90
16801;DHT22;8518;53.236;10.384;2023-03-31T08:26:49;11.20;99.90
16801;DHT22;8518;53.236;10.384;2023-03-31T08:29:15;11.60;99.90
16801;DHT22;8518;53.236;10.384;2023-03-31T08:31:43;11.10;99.90
16801;DHT22;8518;53.236;10.384;2023-03-31T08:37:34;11.20;99.90
16801;DHT22;8518;53.236;10.384;2023-03-31T08:40:04;11.10;99.90
16801;DHT22;8518;53.236;10.384;2023-03-31T08:45:45;10.90;99.90
16801;DHT22;8518;53.236;10.384;2023-03-31T08:48:31;10.90;99.90
16801;DHT22;8518;53.236;10.384;2023-03-31T08:51:10;10.90;99.90
16801;DHT22;8518;53.236;10.384;2023-03-31T08:57:11;10.80;99.90
16801;DHT22;8518;53.236;10.384;2023-03-31T08:59:39;10.90;99.90
16801;DHT22;8518;53.236;10.384;2023-03-31T09:08:33;11.00;99.90
16801;DHT22;8518;53.236;10.384;2023-03-31T09:17:15;11.10;99.90
16801;DHT22;8518;53.236;10.384;2023-03-31T09:22:19;11.20;99.90
16801;DHT22;8518;53.236;10.384;2023-03-31T09:24:55;11.20;99.90
16801;DHT22;8518;53.236;10.384;2023-03-31T09:27:25;11.30;99.90
16801;DHT22;8518;53.236;10.384;2023-03-31T09:29:55;11.30;99.90
16801;DHT22;8518;53.236;10.384;2023-03-31T09:35:49;11.40;99.90
16801;DHT22;8518;53.236;10.384;2023-03-31T09:38:15;11.40;99.90
16801;DHT22;8518;53.236;10.384;2023-03-31T09:40:44;11.40;99.90
16801;DHT22;8518;53.236;10.384;2023-03-31T09:43:20;11.40;99.90
16801;DHT22;8518;53.236;10.384;2023-03-31T09:45:46;12.40;99.90
16801;DHT22;8518;53.236;10.384;2023-03-31T09:48:33;11.80;99.90
16801;DHT22;8518;53.236;10.384;2023-03-31T09:51:05;12.40;99.90
16801;DHT22;8518;53.236;10.384;2023-03-31T09:56:56;12.00;99.90
16801;DHT22;8518;53.236;10.384;2023-03-31T09:59:30;12.00;99.90
16801;DHT22;8518;53.236;10.384;2023-03-31T10:01:58;12.00;99.90
16801;DHT22;8518;53.236;10.384;2023-03-31T10:04:27;12.50;99.90
16801;DHT22;8518;53.236;10.384;2023-03-31T10:06:54;12.20;99.90
16801;DHT22;8518;53.236;10.384;2023-03-31T10:09:24;12.50;99.90
16801;DHT22;8518;53.236;10.384;2023-03-31T10:12:06;12.40;99.90
16801;DHT22;8518;53.236;10.384;2023-03-31T10:14:48;12.40;99.90
16801;DHT22;8518;53.236;10.384;2023-03-31T10:17:20;12.40;99.90
16801;DHT22;8518;53.236;10.384;2023-03-31T10:19:51;12.50;99.90
16801;DHT22;8518;53.236;10.384;2023-03-31T10:25:44;12.80;99.90
16801;DHT22;8518;53.236;10.384;2023-03-31T10:28:14;12.80;99.90
16801;DHT22;8518;53.236;10.384;2023-03-31T10:30:50;12.70;99.90
16801;DHT22;8518;53.236;10.384;2023-03-31T10:36:48;12.50;99.90
16801;DHT22;8518;53.236;10.384;2023-03-31T10:39:30;13.60;99.90
16801;DHT22;8518;53.236;10.384;2023-03-31T10:42:00;12.20;99.90
16801;DHT22;8518;53.236;10.384;2023-03-31T10:44:30;12.10;99.90
16801;DHT22;8518;53.236;10.384;2023-03-31T10:47:15;13.60;99.90
16801;DHT22;8518;53.236;10.384;2023-03-31T10:49:47;12.10;99.90
16801;DHT22;8518;53.236;10.384;2023-03-31T10:52:19;12.00;99.90
16801;DHT22;8518;53.236;10.384;2023-03-31T10:54:57;11.90;99.90
16801;DHT22;8518;53.236;10.384;2023-03-31T11:36:20;11.00;99.90
16801;DHT22;8518;53.236;10.384;2023-03-31T11:41:56;11.20;99.90
16801;DHT22;8518;53.236;10.384;2023-03-31T11:44:24;11.30;99.90
16801;DHT22;8518;53.236;10.384;2023-03-31T11:47:05;12.80;99.90
16801;DHT22;8518;53.236;10.384;2023-03-31T11:49:40;11.40;99.90
16801;DHT22;8518;53.236;10.384;2023-03-31T11:54:52;12.90;99.90
16801;DHT22;8518;53.236;10.384;2023-03-31T11:57:32;11.80;99.90
16801;DHT22;8518;53.236;10.384;2023-03-31T12:00:27;13.00;99.90
16801;DHT22;8518;53.236;10.384;2023-03-31T12:06:26;11.60;99.90
16801;DHT22;8518;53.236;10.384;2023-03-31T12:09:16;11.70;99.90
16801;DHT22;8518;53.236;10.384;2023-03-31T12:12:06;11.80;99.90
16801;DHT22;8518;53.236;10.384;2023-03-31T12:14:47;11.80;99.90
16801;DHT22;8518;53.236;10.384;2023-03-31T12:17:27;11.90;99.90
16801;DHT22;8518;53.236;10.384;2023-03-31T12:20:02;12.00;99.90
16801;DHT22;8518;53.236;10.384;2023-03-31T12:31:56;12.10;99.90
16801;DHT22;8518;53.236;10.384;2023-03-31T12:34:25;12.10;99.90
16801;DHT22;8518;53.236;10.384;2023-03-31T12:37:21;12.20;99.90
16801;DHT22;8518;53.236;10.384;2023-03-31T12:43:12;12.40;99.90
16801;DHT22;8518;53.236;10.384;2023-03-31T12:48:59;12.50;99.90
16801;DHT22;8518;53.236;10.384;2023-03-31T13:06:44;12.90;99.90
16801;DHT22;8518;53.236;10.384;2023-03-31T13:09:01;13.00;99.90
16801;DHT22;8518;53.236;10.384;2023-03-31T13:11:39;13.00;99.90
16801;DHT22;8518;53.236;10.384;2023-03-31T13:24:05;13.20;99.90
16801;DHT22;8518;53.236;10.384;2023-03-31T13:30:00;12.80;99.90
16801;DHT22;8518;53.236;10.384;2023-03-31T13:38:50;12.30;99.90
16801;DHT22;8518;53.236;10.384;2023-03-31T13:44:27;12.50;99.90
16801;DHT22;8518;53.236;10.384;2023-03-31T14:04:03;14.20;99.90
16801;DHT22;8518;53.236;10.384;2023-03-31T14:06:51;14.10;99.90
16801;DHT22;8518;53.236;10.384;2023-03-31T14:15:57;13.80;99.90
16801;DHT22;8518;53.236;10.384;2023-03-31T14:21:59;13.90;99.90
16801;DHT22;8518;53.236;10.384;2023-03-31T14:36:31;14.60;99.90
16801;DHT22;8518;53.236;10.384;2023-03-31T14:39:06;14.70;99.90
16801;DHT22;8518;53.236;10.384;2023-03-31T14:41:52;14.00;99.90
16801;DHT22;8518;53.236;10.384;2023-03-31T14:44:20;14.50;99.90
16801;DHT22;8518;53.236;10.384;2023-03-31T14:46:50;14.40;99.90
16801;DHT22;8518;53.236;10.384;2023-03-31T14:49:27;15.10;99.90
16801;DHT22;8518;53.236;10.384;2023-03-31T14:51:57;14.60;99.90
16801;DHT22;8518;53.236;10.384;2023-03-31T14:54:24;15.50;99.90
16801;DHT22;8518;53.236;10.384;2023-03-31T14:56:54;14.20;99.90
16801;DHT22;8518;53.236;10.384;2023-03-31T14:59:24;14.20;99.90
16801;DHT22;8518;53.236;10.384;2023-03-31T15:02:15;14.10;99.90
16801;DHT22;8518;53.236;10.384;2023-03-31T15:04:48;14.80;99.90
16801;DHT22;8518;53.236;10.384;2023-03-31T15:07:14;13.70;99.90
16801;DHT22;8518;53.236;10.384;2023-03-31T15:09:48;14.80;99.90
16801;DHT22;8518;53.236;10.384;2023-03-31T15:15:42;13.30;99.90
16801;DHT22;8518;53.236;10.384;2023-03-31T15:18:19;13.60;99.90
16801;DHT22;8518;53.236;10.384;2023-03-31T15:20:45;13.10;99.90
16801;DHT22;8518;53.236;10.384;2023-03-31T15:26:46;13.90;99.90
16801;DHT22;8518;53.236;10.384;2023-03-31T15:31:48;12.60;99.90
16801;DHT22;8518;53.236;10.384;2023-03-31T15:37:39;12.40;99.90
16801;DHT22;8518;53.236;10.384;2023-03-31T15:40:25;12.50;99.90
16801;DHT22;8518;53.236;10.384;2023-03-31T15:48:36;12.70;99.90
16801;DHT22;8518;53.236;10.384;2023-03-31T15:51:06;13.60;99.90
16801;DHT22;8518;53.236;10.384;2023-03-31T15:56:59;13.30;99.90
16801;DHT22;8518;53.236;10.384;2023-03-31T15:59:26;13.30;99.90
16801;DHT22;8518;53.236;10.384;2023-03-31T16:05:46;13.00;99.90
16801;DHT22;8518;53.236;10.384;2023-03-31T16:08:17;12.90;99.90
16801;DHT22;8518;53.236;10.384;2023-03-31T16:10:46;12.80;99.90
16801;DHT22;8518;53.236;10.384;2023-03-31T16:16:37;12.70;99.90
16801;DHT22;8518;53.236;10.384;2023-03-31T16:19:08;12.60;99.90
16801;DHT22;8518;53.236;10.384;2023-03-31T16:21:42;12.40;99.90
16801;DHT22;8518;53.236;10.384;2023-03-31T16:27:37;12.40;99.90
16801;DHT22;8518;53.236;10.384;2023-03-31T16:30:14;11.90;99.90
16801;DHT22;8518;53.236;10.384;2023-03-31T16:36:06;12.40;99.90
16801;DHT22;8518;53.236;10.384;2023-03-31T16:38:38;12.50;99.90
16801;DHT22;8518;53.236;10.384;2023-03-31T16:41:04;12.40;99.90
16801;DHT22;8518;53.236;10.384;2023-03-31T16:43:34;12.40;99.90
16801;DHT22;8518;53.236;10.384;2023-03-31T16:46:01;12.40;99.90
16801;DHT22;8518;53.236;10.384;2023-03-31T16:48:30;12.50;99.90
16801;DHT22;8518;53.236;10.384;2023-03-31T16:50:58;12.40;99.90
16801;DHT22;8518;53.236;10.384;2023-03-31T16:56:46;12.20;99.90
16801;DHT22;8518;53.236;10.384;2023-03-31T16:59:12;13.00;99.90
16801;DHT22;8518;53.236;10.384;2023-03-31T17:01:38;12.30;99.90
16801;DHT22;8518;53.236;10.384;2023-03-31T17:07:26;12.30;99.90
16801;DHT22;8518;53.236;10.384;2023-03-31T17:09:51;12.30;99.90
16801;DHT22;8518;53.236;10.384;2023-03-31T17:12:17;12.30;99.90
16801;DHT22;8518;53.236;10.384;2023-03-31T17:14:43;12.30;99.90
16801;DHT22;8518;53.236;10.384;2023-03-31T17:17:09;12.80;99.90
16801;DHT22;8518;53.236;10.384;2023-03-31T17:19:34;12.40;99.90
16801;DHT22;8518;53.236;10.384;2023-03-31T17:22:00;12.10;99.90
16801;DHT22;8518;53.236;10.384;2023-03-31T17:24:27;12.20;99.90
16801;DHT22;8518;53.236;10.384;2023-03-31T17:26:59;12.20;99.90
16801;DHT22;8518;53.236;10.384;2023-03-31T17:29:28;12.20;99.90
16801;DHT22;8518;53.236;10.384;2023-03-31T17:31:55;13.60;99.90
16801;DHT22;8518;53.236;10.384;2023-03-31T17:34:20;11.90;99.90
16801;DHT22;8518;53.236;10.384;2023-03-31T17:36:46;12.10;99.90
16801;DHT22;8518;53.236;10.384;2023-03-31T17:39:15;12.80;99.90
16801;DHT22;8518;53.236;10.384;2023-03-31T17:41:41;13.10;99.90
16801;DHT22;8518;53.236;10.384;2023-03-31T17:44:07;12.70;99.90
16801;DHT22;8518;53.236;10.384;2023-03-31T17:46:33;12.50;99.90
16801;DHT22;8518;53.236;10.384;2023-03-31T17:49:00;13.00;99.90
16801;DHT22;8518;53.236;10.384;2023-03-31T17:51:25;12.90;99.90
16801;DHT22;8518;53.236;10.384;2023-03-31T17:57:14;11.60;99.90
16801;DHT22;8518;53.236;10.384;2023-03-31T17:59:39;11.60;99.90
16801;DHT22;8518;53.236;10.384;2023-03-31T18:02:08;11.50;99.90
16801;DHT22;8518;53.236;10.384;2023-03-31T18:04:35;12.30;99.90
16801;DHT22;8518;53.236;10.384;2023-03-31T18:07:01;11.50;99.90
16801;DHT22;8518;53.236;10.384;2023-03-31T18:09:27;11.90;99.90
16801;DHT22;8518;53.236;10.384;2023-03-31T18:11:53;10.60;99.90
16801;DHT22;8518;53.236;10.384;2023-03-31T18:14:18;11.50;99.90
16801;DHT22;8518;53.236;10.384;2023-03-31T18:16:44;11.80;99.90
16801;DHT22;8518;53.236;10.384;2023-03-31T18:19:10;11.40;99.90
16801;DHT22;8518;53.236;10.384;2023-03-31T18:21:35;11.40;99.90
16801;DHT22;8518;53.236;10.384;2023-03-31T18:27:23;11.40;99.90
16801;DHT22;8518;53.236;10.384;2023-03-31T18:29:48;11.30;99.90
16801;DHT22;8518;53.236;10.384;2023-03-31T18:32:14;11.60;99.90
16801;DHT22;8518;53.236;10.384;2023-03-31T18:34:40;11.20;99.90
16801;DHT22;8518;53.236;10.384;2023-03-31T18:37:09;11.30;99.90
16801;DHT22;8518;53.236;10.384;2023-03-31T18:39:35;11.30;99.90
16801;DHT22;8518;53.236;10.384;2023-03-31T18:42:00;11.30;99.90
16801;DHT22;8518;53.236;10.384;2023-03-31T18:44:27;11.30;99.90
16801;DHT22;8518;53.236;10.384;2023-03-31T18:46:52;11.30;99.90
16801;DHT22;8518;53.236;10.384;2023-03-31T18:49:18;11.30;99.90
16801;DHT22;8518;53.236;10.384;2023-03-31T18:51:44;11.30;99.90
16801;DHT22;8518;53.236;10.384;2023-03-31T18:57:33;11.20;99.90
16801;DHT22;8518;53.236;10.384;2023-03-31T19:00:02;11.20;99.90
16801;DHT22;8518;53.236;10.384;2023-03-31T19:05:58;11.10;99.90
16801;DHT22;8518;53.236;10.384;2023-03-31T19:08:28;11.10;99.90
16801;DHT22;8518;53.236;10.384;2023-03-31T19:11:06;11.10;99.90
16801;DHT22;8518;53.236;10.384;2023-03-31T19:16:55;11.10;99.90
16801;DHT22;8518;53.236;10.384;2023-03-31T19:19:24;11.90;99.90
16801;DHT22;8518;53.236;10.384;2023-03-31T19:21:51;11.20;99.90
16801;DHT22;8518;53.236;10.384;2023-03-31T19:24:17;11.10;99.90
16801;DHT22;8518;53.236;10.384;2023-03-31T19:26:42;11.10;99.90
16801;DHT22;8518;53.236;10.384;2023-03-31T19:29:08;11.60;99.90
16801;DHT22;8518;53.236;10.384;2023-03-31T19:31:36;11.50;99.90
16801;DHT22;8518;53.236;10.384;2023-03-31T19:37:27;11.00;99.90
16801;DHT22;8518;53.236;10.384;2023-03-31T19:39:53;10.90;99.90
16801;DHT22;8518;53.236;10.384;2023-03-31T19:42:19;10.90;99.90
16801;DHT22;8518;53.236;10.384;2023-03-31T19:44:46;11.20;99.90
16801;DHT22;8518;53.236;10.384;2023-03-31T19:47:12;10.90;99.90
16801;DHT22;8518;53.236;10.384;2023-03-31T19:49:38;11.90;99.90
16801;DHT22;8518;53.236;10.384;2023-03-31T19:52:04;10.80;99.90
16801;DHT22;8518;53.236;10.384;2023-03-31T19:54:30;10.50;99.90
16801;DHT22;8518;53.236;10.384;2023-03-31T19:56:56;10.70;99.90
16801;DHT22;8518;53.236;10.384;2023-03-31T19:59:22;10.70;99.90
16801;DHT22;8518;53.236;10.384;2023-03-31T20:01:47;10.70;99.90
16801;DHT22;8518;53.236;10.384;2023-03-31T20:07:35;10.60;99.90
16801;DHT22;8518;53.236;10.384;2023-03-31T20:10:01;10.60;99.90
16801;DHT22;8518;53.236;10.384;2023-03-31T20:15:57;10.60;99.90
16801;DHT22;8518;53.236;10.384;2023-03-31T20:21:45;10.60;99.90
16801;DHT22;8518;53.236;10.384;2023-03-31T20:27:38;10.50;99.90
16801;DHT22;8518;53.236;10.384;2023-03-31T20:30:04;10.50;99.90
16801;DHT22;8518;53.236;10.384;2023-03-31T20:36:04;10.50;99.90
16801;DHT22;8518;53.236;10.384;2023-03-31T20:41:52;10.50;99.90
16801;DHT22;8518;53.236;10.384;2023-03-31T20:44:19;10.50;99.90
16801;DHT22;8518;53.236;10.384;2023-03-31T20:46:45;10.50;99.90
16801;DHT22;8518;53.236;10.384;2023-03-31T20:49:12;10.50;99.90
16801;DHT22;8518;53.236;10.384;2023-03-31T20:51:42;10.50;99.90
16801;DHT22;8518;53.236;10.384;2023-03-31T20:57:38;10.50;99.90
16801;DHT22;8518;53.236;10.384;2023-03-31T21:06:47;10.50;99.90
16801;DHT22;8518;53.236;10.384;2023-03-31T21:09:21;10.30;99.90
16801;DHT22;8518;53.236;10.384;2023-03-31T21:11:48;10.50;99.90
16801;DHT22;8518;53.236;10.384;2023-03-31T21:17:37;10.60;99.90
16801;DHT22;8518;53.236;10.384;2023-03-31T21:23:26;10.50;99.90
16801;DHT22;8518;53.236;10.384;2023-03-31T21:26:16;10.50;99.90
16801;DHT22;8518;53.236;10.384;2023-03-31T21:35:35;10.50;99.90
16801;DHT22;8518;53.236;10.384;2023-03-31T21:38:00;12.20;99.90
16801;DHT22;8518;53.236;10.384;2023-03-31T21:40:27;10.50;99.90
16801;DHT22;8518;53.236;10.384;2023-03-31T21:42:52;11.30;99.90
16801;DHT22;8518;53.236;10.384;2023-03-31T21:45:18;11.80;99.90
16801;DHT22;8518;53.236;10.384;2023-03-31T21:48:16;10.60;99.90
16801;DHT22;8518;53.236;10.384;2023-03-31T21:50:45;11.00;99.90
16801;DHT22;8518;53.236;10.384;2023-03-31T21:56:38;10.40;99.90
16801;DHT22;8518;53.236;10.384;2023-03-31T21:59:16;10.50;99.90
16801;DHT22;8518;53.236;10.384;2023-03-31T22:02:05;10.40;99.90
16801;DHT22;8518;53.236;10.384;2023-03-31T22:04:31;12.20;99.90
16801;DHT22;8518;53.236;10.384;2023-03-31T22:07:00;11.60;99.90
16801;DHT22;8518;53.236;10.384;2023-03-31T22:09:44;10.50;99.90
16801;DHT22;8518;53.236;10.384;2023-03-31T22:12:09;10.50;99.90
16801;DHT22;8518;53.236;10.384;2023-03-31T22:14:36;10.70;99.90
16801;DHT22;8518;53.236;10.384;2023-03-31T22:17:02;10.70;99.90
16801;DHT22;8518;53.236;10.384;2023-03-31T22:19:33;10.40;99.90
16801;DHT22;8518;53.236;10.384;2023-03-31T22:21:59;10.20;99.90
16801;DHT22;8518;53.236;10.384;2023-03-31T22:24:25;10.40;99.90
16801;DHT22;8518;53.236;10.384;2023-03-31T22:26:50;12.20;99.90
16801;DHT22;8518;53.236;10.384;2023-03-31T22:29:16;10.50;99.90
16801;DHT22;8518;53.236;10.384;2023-03-31T22:31:44;10.50;99.90
16801;DHT22;8518;53.236;10.384;2023-03-31T22:37:32;10.40;99.90
16801;DHT22;8518;53.236;10.384;2023-03-31T22:40:00;10.40;99.90
16801;DHT22;8518;53.236;10.384;2023-03-31T22:42:29;10.50;99.90
16801;DHT22;8518;53.236;10.384;2023-03-31T22:44:54;12.00;99.90
16801;DHT22;8518;53.236;10.384;2023-03-31T22:47:29;10.40;99.90
16801;DHT22;8518;53.236;10.384;2023-03-31T22:49:55;11.00;99.90
16801;DHT22;8518;53.236;10.384;2023-03-31T22:55:44;10.40;99.90
16801;DHT22;8518;53.236;10.384;2023-03-31T23:01:34;10.30;99.90
16801;DHT22;8518;53.236;10.384;2023-03-31T23:07:23;10.50;99.90
16801;DHT22;8518;53.236;10.384;2023-03-31T23:09:48;10.30;99.90
16801;DHT22;8518;53.236;10.384;2023-03-31T23:12:15;12.10;99.90
16801;DHT22;8518;53.236;10.384;2023-03-31T23:14:43;10.30;99.90